sensor_id;sensor_type;location;lat;lon;timestamp;temperature;humidity
42097;DHT22;27754;45.414;11.084;2023-05-10T00:00:42;16.80;73.90
42097;DHT22;27754;45.414;11.084;2023-05-10T00:03:08;16.80;74.60
42097;DHT22;27754;45.414;11.084;2023-05-10T00:05:35;16.70;74.70
42097;DHT22;27754;45.414;11.084;2023-05-10T00:08:02;16.70;74.20
42097;DHT22;27754;45.414;11.084;2023-05-10T00:10:29;16.70;73.80
42097;DHT22;27754;45.414;11.084;2023-05-10T00:12:56;16.70;73.30
42097;DHT22;27754;45.414;11.084;2023-05-10T00:15:23;16.60;74.00
42097;DHT22;27754;45.414;11.084;2023-05-10T00:17:50;16.60;73.90
42097;DHT22;27754;45.414;11.084;2023-05-10T00:20:17;16.70;73.70
42097;DHT22;27754;45.414;11.084;2023-05-10T00:22:44;16.60;72.70
42097;DHT22;27754;45.414;11.084;2023-05-10T00:25:11;16.60;71.90
42097;DHT22;27754;45.414;11.084;2023-05-10T00:27:38;16.60;71.20
42097;DHT22;27754;45.414;11.084;2023-05-10T00:30:06;16.60;71.00
42097;DHT22;27754;45.414;11.084;2023-05-10T00:32:34;16.60;71.00
42097;DHT22;27754;45.414;11.084;2023-05-10T00:35:01;16.50;70.70
42097;DHT22;27754;45.414;11.084;2023-05-10T00:37:28;16.50;70.70
42097;DHT22;27754;45.414;11.084;2023-05-10T00:39:55;16.50;69.50
42097;DHT22;27754;45.414;11.084;2023-05-10T00:42:22;16.40;70.70
42097;DHT22;27754;45.414;11.084;2023-05-10T00:44:51;16.40;70.40
42097;DHT22;27754;45.414;11.084;2023-05-10T00:47:18;16.30;70.90
42097;DHT22;27754;45.414;11.084;2023-05-10T00:49:45;16.30;70.00
42097;DHT22;27754;45.414;11.084;2023-05-10T00:52:13;16.30;70.40
42097;DHT22;27754;45.414;11.084;2023-05-10T00:54:40;16.20;69.60
42097;DHT22;27754;45.414;11.084;2023-05-10T00:57:07;16.20;68.80
42097;DHT22;27754;45.414;11.084;2023-05-10T00:59:34;16.10;69.50
42097;DHT22;27754;45.414;11.084;2023-05-10T01:02:01;16.10;69.50
42097;DHT22;27754;45.414;11.084;2023-05-10T01:04:29;16.00;69.80
42097;DHT22;27754;45.414;11.084;2023-05-10T01:06:57;16.00;69.50
42097;DHT22;27754;45.414;11.084;2023-05-10T01:09:24;16.00;70.80
42097;DHT22;27754;45.414;11.084;2023-05-10T01:11:53;15.90;69.70
42097;DHT22;27754;45.414;11.084;2023-05-10T01:14:21;15.90;69.50
42097;DHT22;27754;45.414;11.084;2023-05-10T01:16:49;15.90;69.00
42097;DHT22;27754;45.414;11.084;2023-05-10T01:19:25;15.90;68.60
42097;DHT22;27754;45.414;11.084;2023-05-10T01:27:42;15.80;68.40
42097;DHT22;27754;45.414;11.084;2023-05-10T01:33:26;15.80;68.60
42097;DHT22;27754;45.414;11.084;2023-05-10T01:36:30;15.70;69.40
42097;DHT22;27754;45.414;11.084;2023-05-10T01:39:17;15.70;68.80
42097;DHT22;27754;45.414;11.084;2023-05-10T01:41:53;15.70;69.90
42097;DHT22;27754;45.414;11.084;2023-05-10T01:44:44;15.60;69.60
42097;DHT22;27754;45.414;11.084;2023-05-10T01:47:34;15.50;68.80
42097;DHT22;27754;45.414;11.084;2023-05-10T01:50:04;15.50;69.70
42097;DHT22;27754;45.414;11.084;2023-05-10T01:52:42;15.40;70.10
42097;DHT22;27754;45.414;11.084;2023-05-10T01:55:14;15.30;70.50
42097;DHT22;27754;45.414;11.084;2023-05-10T01:57:44;15.30;70.80
42097;DHT22;27754;45.414;11.084;2023-05-10T02:00:14;15.30;72.10
42097;DHT22;27754;45.414;11.084;2023-05-10T02:02:46;15.20;71.80
42097;DHT22;27754;45.414;11.084;2023-05-10T02:05:15;15.20;72.40
42097;DHT22;27754;45.414;11.084;2023-05-10T02:07:43;15.10;72.50
42097;DHT22;27754;45.414;11.084;2023-05-10T02:10:11;15.10;73.20
42097;DHT22;27754;45.414;11.084;2023-05-10T02:12:43;15.10;73.20
42097;DHT22;27754;45.414;11.084;2023-05-10T02:15:12;15.00;74.00
42097;DHT22;27754;45.414;11.084;2023-05-10T02:17:42;15.00;73.50
42097;DHT22;27754;45.414;11.084;2023-05-10T02:20:10;14.90;73.60
42097;DHT22;27754;45.414;11.084;2023-05-10T02:22:39;14.90;74.40
42097;DHT22;27754;45.414;11.084;2023-05-10T02:25:07;14.90;74.60
42097;DHT22;27754;45.414;11.084;2023-05-10T02:27:35;14.90;75.40
42097;DHT22;27754;45.414;11.084;2023-05-10T02:30:04;14.80;75.60
42097;DHT22;27754;45.414;11.084;2023-05-10T02:32:33;14.70;76.00
42097;DHT22;27754;45.414;11.084;2023-05-10T02:35:02;14.70;76.40
42097;DHT22;27754;45.414;11.084;2023-05-10T02:37:29;14.70;76.20
42097;DHT22;27754;45.414;11.084;2023-05-10T02:39:57;14.60;77.50
42097;DHT22;27754;45.414;11.084;2023-05-10T02:42:28;14.60;77.50
42097;DHT22;27754;45.414;11.084;2023-05-10T02:45:00;14.50;77.80
42097;DHT22;27754;45.414;11.084;2023-05-10T02:47:28;14.50;77.90
42097;DHT22;27754;45.414;11.084;2023-05-10T02:49:55;14.50;78.50
42097;DHT22;27754;45.414;11.084;2023-05-10T02:52:34;14.40;79.00
42097;DHT22;27754;45.414;11.084;2023-05-10T02:55:05;14.40;78.60
42097;DHT22;27754;45.414;11.084;2023-05-10T02:57:34;14.40;79.50
42097;DHT22;27754;45.414;11.084;2023-05-10T03:00:02;14.30;79.30
42097;DHT22;27754;45.414;11.084;2023-05-10T03:02:30;14.30;79.90
42097;DHT22;27754;45.414;11.084;2023-05-10T03:04:58;14.20;80.30
42097;DHT22;27754;45.414;11.084;2023-05-10T03:07:26;14.10;80.40
42097;DHT22;27754;45.414;11.084;2023-05-10T03:09:53;14.10;80.50
42097;DHT22;27754;45.414;11.084;2023-05-10T03:15:34;14.00;81.30
42097;DHT22;27754;45.414;11.084;2023-05-10T03:18:10;13.90;81.90
42097;DHT22;27754;45.414;11.084;2023-05-10T03:20:43;13.90;82.10
42097;DHT22;27754;45.414;11.084;2023-05-10T03:23:35;13.80;82.40
42097;DHT22;27754;45.414;11.084;2023-05-10T03:26:04;13.70;82.70
42097;DHT22;27754;45.414;11.084;2023-05-10T03:28:34;13.70;83.20
42097;DHT22;27754;45.414;11.084;2023-05-10T03:31:04;13.80;83.00
42097;DHT22;27754;45.414;11.084;2023-05-10T03:33:33;13.80;83.30
42097;DHT22;27754;45.414;11.084;2023-05-10T03:36:00;13.80;83.00
42097;DHT22;27754;45.414;11.084;2023-05-10T03:38:27;13.70;83.30
42097;DHT22;27754;45.414;11.084;2023-05-10T03:40:56;13.60;84.00
42097;DHT22;27754;45.414;11.084;2023-05-10T03:43:23;13.60;84.10
42097;DHT22;27754;45.414;11.084;2023-05-10T03:45:51;13.60;84.80
42097;DHT22;27754;45.414;11.084;2023-05-10T03:48:18;13.50;84.90
42097;DHT22;27754;45.414;11.084;2023-05-10T03:50:45;13.40;84.60
42097;DHT22;27754;45.414;11.084;2023-05-10T03:53:13;13.40;84.30
42097;DHT22;27754;45.414;11.084;2023-05-10T03:55:39;13.40;85.10
42097;DHT22;27754;45.414;11.084;2023-05-10T03:58:10;13.30;84.10
42097;DHT22;27754;45.414;11.084;2023-05-10T04:00:37;13.40;83.50
42097;DHT22;27754;45.414;11.084;2023-05-10T04:03:11;13.40;84.00
42097;DHT22;27754;45.414;11.084;2023-05-10T04:05:38;13.40;84.30
42097;DHT22;27754;45.414;11.084;2023-05-10T04:08:06;13.50;84.20
42097;DHT22;27754;45.414;11.084;2023-05-10T04:10:33;13.40;84.10
42097;DHT22;27754;45.414;11.084;2023-05-10T04:13:00;13.40;82.70
42097;DHT22;27754;45.414;11.084;2023-05-10T04:15:27;13.40;83.30
42097;DHT22;27754;45.414;11.084;2023-05-10T04:17:54;13.40;83.10
42097;DHT22;27754;45.414;11.084;2023-05-10T04:20:21;13.40;82.70
42097;DHT22;27754;45.414;11.084;2023-05-10T04:22:48;13.30;82.90
42097;DHT22;27754;45.414;11.084;2023-05-10T04:25:14;13.40;83.20
42097;DHT22;27754;45.414;11.084;2023-05-10T04:27:41;13.40;83.40
42097;DHT22;27754;45.414;11.084;2023-05-10T04:30:08;13.30;83.60
42097;DHT22;27754;45.414;11.084;2023-05-10T04:32:35;13.30;83.80
42097;DHT22;27754;45.414;11.084;2023-05-10T04:35:02;13.20;84.50
42097;DHT22;27754;45.414;11.084;2023-05-10T04:37:31;13.20;84.10
42097;DHT22;27754;45.414;11.084;2023-05-10T04:39:58;13.20;84.50
42097;DHT22;27754;45.414;11.084;2023-05-10T04:42:26;13.20;84.30
42097;DHT22;27754;45.414;11.084;2023-05-10T04:44:53;13.20;84.80
42097;DHT22;27754;45.414;11.084;2023-05-10T04:47:20;13.30;84.30
42097;DHT22;27754;45.414;11.084;2023-05-10T04:49:47;13.20;84.20
42097;DHT22;27754;45.414;11.084;2023-05-10T04:52:14;13.20;84.40
42097;DHT22;27754;45.414;11.084;2023-05-10T04:54:42;13.10;84.50
42097;DHT22;27754;45.414;11.084;2023-05-10T04:57:09;13.10;83.90
42097;DHT22;27754;45.414;11.084;2023-05-10T04:59:36;13.10;84.70
42097;DHT22;27754;45.414;11.084;2023-05-10T05:02:05;13.10;84.20
42097;DHT22;27754;45.414;11.084;2023-05-10T05:04:32;13.10;84.30
42097;DHT22;27754;45.414;11.084;2023-05-10T05:06:59;13.10;85.20
42097;DHT22;27754;45.414;11.084;2023-05-10T05:09:26;13.10;85.10
42097;DHT22;27754;45.414;11.084;2023-05-10T05:11:52;13.20;85.40
42097;DHT22;27754;45.414;11.084;2023-05-10T05:14:19;13.10;84.80
42097;DHT22;27754;45.414;11.084;2023-05-10T05:16:52;13.10;83.90
42097;DHT22;27754;45.414;11.084;2023-05-10T05:19:19;13.10;84.70
42097;DHT22;27754;45.414;11.084;2023-05-10T05:21:46;13.10;84.50
42097;DHT22;27754;45.414;11.084;2023-05-10T05:24:13;13.10;85.40
42097;DHT22;27754;45.414;11.084;2023-05-10T05:26:40;13.00;84.90
42097;DHT22;27754;45.414;11.084;2023-05-10T05:29:07;13.10;84.40
42097;DHT22;27754;45.414;11.084;2023-05-10T05:31:34;13.10;85.10
42097;DHT22;27754;45.414;11.084;2023-05-10T05:34:00;13.00;84.60
42097;DHT22;27754;45.414;11.084;2023-05-10T05:36:28;13.00;84.70
42097;DHT22;27754;45.414;11.084;2023-05-10T05:38:54;13.00;84.50
42097;DHT22;27754;45.414;11.084;2023-05-10T05:41:21;13.00;84.60
42097;DHT22;27754;45.414;11.084;2023-05-10T05:43:49;13.00;84.40
42097;DHT22;27754;45.414;11.084;2023-05-10T05:46:15;13.00;84.40
42097;DHT22;27754;45.414;11.084;2023-05-10T05:48:42;13.00;85.00
42097;DHT22;27754;45.414;11.084;2023-05-10T05:51:09;13.00;84.40
42097;DHT22;27754;45.414;11.084;2023-05-10T05:53:36;13.00;84.30
42097;DHT22;27754;45.414;11.084;2023-05-10T05:56:03;13.00;83.80
42097;DHT22;27754;45.414;11.084;2023-05-10T05:58:30;12.90;83.70
42097;DHT22;27754;45.414;11.084;2023-05-10T06:00:57;12.80;82.80
42097;DHT22;27754;45.414;11.084;2023-05-10T06:03:24;12.80;84.00
42097;DHT22;27754;45.414;11.084;2023-05-10T06:05:51;12.90;84.20
42097;DHT22;27754;45.414;11.084;2023-05-10T06:08:18;12.90;84.40
42097;DHT22;27754;45.414;11.084;2023-05-10T06:10:45;13.00;84.30
42097;DHT22;27754;45.414;11.084;2023-05-10T06:13:12;13.00;84.00
42097;DHT22;27754;45.414;11.084;2023-05-10T06:15:39;13.00;83.60
42097;DHT22;27754;45.414;11.084;2023-05-10T06:18:06;13.00;83.10
42097;DHT22;27754;45.414;11.084;2023-05-10T06:20:33;13.00;83.50
42097;DHT22;27754;45.414;11.084;2023-05-10T06:23:00;13.00;84.10
42097;DHT22;27754;45.414;11.084;2023-05-10T06:25:27;13.00;84.60
42097;DHT22;27754;45.414;11.084;2023-05-10T06:27:54;12.90;84.60
42097;DHT22;27754;45.414;11.084;2023-05-10T06:30:25;12.80;84.30
42097;DHT22;27754;45.414;11.084;2023-05-10T06:32:55;12.80;86.10
42097;DHT22;27754;45.414;11.084;2023-05-10T06:35:22;12.80;85.60
42097;DHT22;27754;45.414;11.084;2023-05-10T06:37:50;12.80;86.00
42097;DHT22;27754;45.414;11.084;2023-05-10T06:40:17;12.80;85.30
42097;DHT22;27754;45.414;11.084;2023-05-10T06:42:45;12.80;85.70
42097;DHT22;27754;45.414;11.084;2023-05-10T06:45:13;12.80;85.50
42097;DHT22;27754;45.414;11.084;2023-05-10T06:47:41;12.80;85.20
42097;DHT22;27754;45.414;11.084;2023-05-10T06:50:09;12.80;85.90
42097;DHT22;27754;45.414;11.084;2023-05-10T06:52:36;12.80;85.90
42097;DHT22;27754;45.414;11.084;2023-05-10T06:55:04;12.80;85.70
42097;DHT22;27754;45.414;11.084;2023-05-10T06:57:31;12.80;86.00
42097;DHT22;27754;45.414;11.084;2023-05-10T06:59:59;12.90;85.70
42097;DHT22;27754;45.414;11.084;2023-05-10T07:02:26;12.90;86.10
42097;DHT22;27754;45.414;11.084;2023-05-10T07:04:53;12.90;85.80
42097;DHT22;27754;45.414;11.084;2023-05-10T07:07:20;12.80;85.80
42097;DHT22;27754;45.414;11.084;2023-05-10T07:09:47;12.90;86.20
42097;DHT22;27754;45.414;11.084;2023-05-10T07:12:16;12.90;86.10
42097;DHT22;27754;45.414;11.084;2023-05-10T07:14:43;12.90;86.10
42097;DHT22;27754;45.414;11.084;2023-05-10T07:17:10;12.90;85.50
42097;DHT22;27754;45.414;11.084;2023-05-10T07:19:37;12.90;85.70
42097;DHT22;27754;45.414;11.084;2023-05-10T07:22:04;12.80;85.50
42097;DHT22;27754;45.414;11.084;2023-05-10T07:24:33;12.90;86.00
42097;DHT22;27754;45.414;11.084;2023-05-10T07:27:00;12.90;86.40
42097;DHT22;27754;45.414;11.084;2023-05-10T07:29:27;12.90;86.20
42097;DHT22;27754;45.414;11.084;2023-05-10T07:31:54;12.80;86.70
42097;DHT22;27754;45.414;11.084;2023-05-10T07:34:25;12.60;87.30
42097;DHT22;27754;45.414;11.084;2023-05-10T07:36:52;12.70;87.90
42097;DHT22;27754;45.414;11.084;2023-05-10T07:39:19;12.60;87.50
42097;DHT22;27754;45.414;11.084;2023-05-10T07:41:54;12.60;87.80
42097;DHT22;27754;45.414;11.084;2023-05-10T07:44:21;12.40;87.90
42097;DHT22;27754;45.414;11.084;2023-05-10T07:46:48;12.50;88.20
42097;DHT22;27754;45.414;11.084;2023-05-10T07:49:16;12.50;88.30
42097;DHT22;27754;45.414;11.084;2023-05-10T07:51:43;12.40;88.30
42097;DHT22;27754;45.414;11.084;2023-05-10T07:54:10;12.60;88.70
42097;DHT22;27754;45.414;11.084;2023-05-10T07:56:37;12.50;88.50
42097;DHT22;27754;45.414;11.084;2023-05-10T07:59:04;12.40;88.40
42097;DHT22;27754;45.414;11.084;2023-05-10T08:01:34;12.40;88.50
42097;DHT22;27754;45.414;11.084;2023-05-10T08:04:01;12.40;88.20
42097;DHT22;27754;45.414;11.084;2023-05-10T08:06:28;12.50;88.20
42097;DHT22;27754;45.414;11.084;2023-05-10T08:08:57;12.60;88.80
42097;DHT22;27754;45.414;11.084;2023-05-10T08:11:24;12.50;88.00
42097;DHT22;27754;45.414;11.084;2023-05-10T08:13:51;12.50;87.70
42097;DHT22;27754;45.414;11.084;2023-05-10T08:16:18;12.60;86.80
42097;DHT22;27754;45.414;11.084;2023-05-10T08:18:46;12.60;86.90
42097;DHT22;27754;45.414;11.084;2023-05-10T08:21:14;12.60;86.90
42097;DHT22;27754;45.414;11.084;2023-05-10T08:23:41;12.50;87.30
42097;DHT22;27754;45.414;11.084;2023-05-10T08:26:11;12.50;86.90
42097;DHT22;27754;45.414;11.084;2023-05-10T08:28:38;12.50;86.50
42097;DHT22;27754;45.414;11.084;2023-05-10T08:31:05;12.50;86.20
42097;DHT22;27754;45.414;11.084;2023-05-10T08:33:32;12.60;86.80
42097;DHT22;27754;45.414;11.084;2023-05-10T08:35:59;12.40;86.30
42097;DHT22;27754;45.414;11.084;2023-05-10T08:38:26;12.50;86.90
42097;DHT22;27754;45.414;11.084;2023-05-10T08:40:54;12.50;85.90
42097;DHT22;27754;45.414;11.084;2023-05-10T08:43:29;12.50;86.40
42097;DHT22;27754;45.414;11.084;2023-05-10T08:46:00;12.40;86.30
42097;DHT22;27754;45.414;11.084;2023-05-10T08:48:30;12.50;86.10
42097;DHT22;27754;45.414;11.084;2023-05-10T08:50:58;12.40;86.30
42097;DHT22;27754;45.414;11.084;2023-05-10T08:53:28;12.50;85.40
42097;DHT22;27754;45.414;11.084;2023-05-10T08:55:57;12.50;86.20
42097;DHT22;27754;45.414;11.084;2023-05-10T08:58:25;12.50;86.00
42097;DHT22;27754;45.414;11.084;2023-05-10T09:00:52;12.50;85.60
42097;DHT22;27754;45.414;11.084;2023-05-10T09:03:20;12.60;86.30
42097;DHT22;27754;45.414;11.084;2023-05-10T09:05:48;12.50;86.00
42097;DHT22;27754;45.414;11.084;2023-05-10T09:08:15;12.60;86.20
42097;DHT22;27754;45.414;11.084;2023-05-10T09:10:44;12.60;86.80
42097;DHT22;27754;45.414;11.084;2023-05-10T09:13:14;12.60;85.50
42097;DHT22;27754;45.414;11.084;2023-05-10T09:15:43;12.60;86.30
42097;DHT22;27754;45.414;11.084;2023-05-10T09:18:11;12.60;86.90
42097;DHT22;27754;45.414;11.084;2023-05-10T09:20:38;12.70;86.00
42097;DHT22;27754;45.414;11.084;2023-05-10T09:23:05;12.60;85.80
42097;DHT22;27754;45.414;11.084;2023-05-10T09:25:32;12.70;85.10
42097;DHT22;27754;45.414;11.084;2023-05-10T09:28:02;12.70;85.60
42097;DHT22;27754;45.414;11.084;2023-05-10T09:30:32;12.80;86.60
42097;DHT22;27754;45.414;11.084;2023-05-10T09:33:00;12.80;85.90
42097;DHT22;27754;45.414;11.084;2023-05-10T09:35:29;12.80;86.30
42097;DHT22;27754;45.414;11.084;2023-05-10T09:37:59;12.90;86.20
42097;DHT22;27754;45.414;11.084;2023-05-10T09:40:28;12.90;85.30
42097;DHT22;27754;45.414;11.084;2023-05-10T09:43:01;13.00;84.70
42097;DHT22;27754;45.414;11.084;2023-05-10T09:45:33;13.00;84.60
42097;DHT22;27754;45.414;11.084;2023-05-10T09:48:04;13.00;83.90
42097;DHT22;27754;45.414;11.084;2023-05-10T09:50:31;13.10;84.70
42097;DHT22;27754;45.414;11.084;2023-05-10T09:53:02;13.10;84.30
42097;DHT22;27754;45.414;11.084;2023-05-10T09:55:40;13.10;84.40
42097;DHT22;27754;45.414;11.084;2023-05-10T09:58:07;13.20;83.60
42097;DHT22;27754;45.414;11.084;2023-05-10T10:00:40;13.20;85.00
42097;DHT22;27754;45.414;11.084;2023-05-10T10:03:16;13.30;85.60
42097;DHT22;27754;45.414;11.084;2023-05-10T10:05:44;13.30;84.70
42097;DHT22;27754;45.414;11.084;2023-05-10T10:08:12;13.30;84.40
42097;DHT22;27754;45.414;11.084;2023-05-10T10:10:40;13.30;83.50
42097;DHT22;27754;45.414;11.084;2023-05-10T10:13:07;13.20;84.10
42097;DHT22;27754;45.414;11.084;2023-05-10T10:15:34;13.20;84.50
42097;DHT22;27754;45.414;11.084;2023-05-10T10:18:02;13.10;83.80
42097;DHT22;27754;45.414;11.084;2023-05-10T10:20:31;13.20;84.90
42097;DHT22;27754;45.414;11.084;2023-05-10T10:22:58;13.20;85.10
42097;DHT22;27754;45.414;11.084;2023-05-10T10:25:25;13.30;84.00
42097;DHT22;27754;45.414;11.084;2023-05-10T10:28:08;13.20;84.70
42097;DHT22;27754;45.414;11.084;2023-05-10T10:30:48;13.20;83.10
42097;DHT22;27754;45.414;11.084;2023-05-10T10:33:55;13.30;83.90
42097;DHT22;27754;45.414;11.084;2023-05-10T10:36:23;13.20;84.50
42097;DHT22;27754;45.414;11.084;2023-05-10T10:39:01;13.20;84.10
42097;DHT22;27754;45.414;11.084;2023-05-10T10:41:36;13.30;84.60
42097;DHT22;27754;45.414;11.084;2023-05-10T10:44:26;13.30;84.40
42097;DHT22;27754;45.414;11.084;2023-05-10T10:47:03;13.30;85.90
42097;DHT22;27754;45.414;11.084;2023-05-10T10:49:52;13.30;85.40
42097;DHT22;27754;45.414;11.084;2023-05-10T10:52:31;13.40;85.70
42097;DHT22;27754;45.414;11.084;2023-05-10T10:55:06;13.30;85.60
42097;DHT22;27754;45.414;11.084;2023-05-10T11:03:09;13.40;85.30
42097;DHT22;27754;45.414;11.084;2023-05-10T11:05:40;13.30;84.50
42097;DHT22;27754;45.414;11.084;2023-05-10T11:08:30;13.30;84.80
42097;DHT22;27754;45.414;11.084;2023-05-10T11:11:05;13.30;84.80
42097;DHT22;27754;45.414;11.084;2023-05-10T11:13:41;13.40;84.70
42097;DHT22;27754;45.414;11.084;2023-05-10T11:16:24;13.40;85.40
42097;DHT22;27754;45.414;11.084;2023-05-10T11:19:02;13.30;85.50
42097;DHT22;27754;45.414;11.084;2023-05-10T11:21:31;13.40;85.30
42097;DHT22;27754;45.414;11.084;2023-05-10T11:23:59;13.50;86.00
42097;DHT22;27754;45.414;11.084;2023-05-10T11:26:32;13.50;83.60
42097;DHT22;27754;45.414;11.084;2023-05-10T11:29:00;13.60;84.40
42097;DHT22;27754;45.414;11.084;2023-05-10T11:31:28;13.60;84.70
42097;DHT22;27754;45.414;11.084;2023-05-10T11:33:58;13.60;84.50
42097;DHT22;27754;45.414;11.084;2023-05-10T11:36:27;13.40;85.10
42097;DHT22;27754;45.414;11.084;2023-05-10T11:38:55;13.50;85.00
42097;DHT22;27754;45.414;11.084;2023-05-10T11:41:24;13.70;86.10
42097;DHT22;27754;45.414;11.084;2023-05-10T11:43:52;13.60;84.80
42097;DHT22;27754;45.414;11.084;2023-05-10T11:46:23;13.80;85.70
42097;DHT22;27754;45.414;11.084;2023-05-10T11:49:01;13.90;85.50
42097;DHT22;27754;45.414;11.084;2023-05-10T11:51:33;13.90;86.60
42097;DHT22;27754;45.414;11.084;2023-05-10T11:54:06;14.00;85.90
42097;DHT22;27754;45.414;11.084;2023-05-10T11:56:36;14.00;86.40
42097;DHT22;27754;45.414;11.084;2023-05-10T11:59:03;14.10;86.20
42097;DHT22;27754;45.414;11.084;2023-05-10T12:01:30;14.20;86.60
42097;DHT22;27754;45.414;11.084;2023-05-10T12:03:58;14.30;86.40
42097;DHT22;27754;45.414;11.084;2023-05-10T12:06:32;14.30;86.30
42097;DHT22;27754;45.414;11.084;2023-05-10T12:09:06;14.30;85.70
42097;DHT22;27754;45.414;11.084;2023-05-10T12:11:37;14.30;85.30
42097;DHT22;27754;45.414;11.084;2023-05-10T12:14:09;14.40;85.60
42097;DHT22;27754;45.414;11.084;2023-05-10T12:16:37;14.40;86.00
42097;DHT22;27754;45.414;11.084;2023-05-10T12:19:04;14.50;86.10
42097;DHT22;27754;45.414;11.084;2023-05-10T12:21:32;14.50;86.00
42097;DHT22;27754;45.414;11.084;2023-05-10T12:24:02;14.50;85.50
42097;DHT22;27754;45.414;11.084;2023-05-10T12:26:30;14.40;84.70
42097;DHT22;27754;45.414;11.084;2023-05-10T12:29:17;14.50;85.20
42097;DHT22;27754;45.414;11.084;2023-05-10T12:31:59;14.40;84.60
42097;DHT22;27754;45.414;11.084;2023-05-10T12:34:34;14.40;84.60
42097;DHT22;27754;45.414;11.084;2023-05-10T12:37:04;14.20;83.60
42097;DHT22;27754;45.414;11.084;2023-05-10T12:39:42;14.30;83.40
42097;DHT22;27754;45.414;11.084;2023-05-10T12:42:10;14.30;84.40
42097;DHT22;27754;45.414;11.084;2023-05-10T12:44:37;14.20;85.00
42097;DHT22;27754;45.414;11.084;2023-05-10T12:47:04;14.20;85.70
42097;DHT22;27754;45.414;11.084;2023-05-10T12:49:31;14.10;85.30
42097;DHT22;27754;45.414;11.084;2023-05-10T12:51:58;14.00;85.00
42097;DHT22;27754;45.414;11.084;2023-05-10T12:54:25;14.00;85.10
42097;DHT22;27754;45.414;11.084;2023-05-10T12:56:52;14.00;85.60
42097;DHT22;27754;45.414;11.084;2023-05-10T12:59:19;14.00;85.50
42097;DHT22;27754;45.414;11.084;2023-05-10T13:01:46;14.00;85.60
42097;DHT22;27754;45.414;11.084;2023-05-10T13:04:13;14.00;85.10
42097;DHT22;27754;45.414;11.084;2023-05-10T13:06:43;13.90;85.90
42097;DHT22;27754;45.414;11.084;2023-05-10T13:09:10;13.90;86.00
42097;DHT22;27754;45.414;11.084;2023-05-10T13:11:37;13.90;86.70
42097;DHT22;27754;45.414;11.084;2023-05-10T13:14:04;13.90;85.60
42097;DHT22;27754;45.414;11.084;2023-05-10T13:16:31;13.90;86.20
42097;DHT22;27754;45.414;11.084;2023-05-10T13:18:58;14.00;85.90
42097;DHT22;27754;45.414;11.084;2023-05-10T13:21:25;14.00;85.90
42097;DHT22;27754;45.414;11.084;2023-05-10T13:23:53;14.00;85.40
42097;DHT22;27754;45.414;11.084;2023-05-10T13:26:19;14.10;86.90
42097;DHT22;27754;45.414;11.084;2023-05-10T13:28:47;14.10;86.70
42097;DHT22;27754;45.414;11.084;2023-05-10T13:31:15;14.10;86.00
42097;DHT22;27754;45.414;11.084;2023-05-10T13:33:42;14.20;86.60
42097;DHT22;27754;45.414;11.084;2023-05-10T13:36:09;14.30;86.10
42097;DHT22;27754;45.414;11.084;2023-05-10T13:38:36;14.40;86.80
42097;DHT22;27754;45.414;11.084;2023-05-10T13:41:03;14.40;87.70
42097;DHT22;27754;45.414;11.084;2023-05-10T13:43:30;14.50;87.80
42097;DHT22;27754;45.414;11.084;2023-05-10T13:45:57;14.50;87.00
42097;DHT22;27754;45.414;11.084;2023-05-10T13:48:24;14.50;86.70
42097;DHT22;27754;45.414;11.084;2023-05-10T13:50:51;14.50;86.30
42097;DHT22;27754;45.414;11.084;2023-05-10T13:53:18;14.50;86.10
42097;DHT22;27754;45.414;11.084;2023-05-10T13:55:45;14.50;86.20
42097;DHT22;27754;45.414;11.084;2023-05-10T13:58:11;14.50;86.80
42097;DHT22;27754;45.414;11.084;2023-05-10T14:00:41;14.50;86.40
42097;DHT22;27754;45.414;11.084;2023-05-10T14:03:08;14.60;86.60
42097;DHT22;27754;45.414;11.084;2023-05-10T14:05:38;14.70;86.60
42097;DHT22;27754;45.414;11.084;2023-05-10T14:08:05;14.70;86.00
42097;DHT22;27754;45.414;11.084;2023-05-10T14:10:32;14.80;86.30
42097;DHT22;27754;45.414;11.084;2023-05-10T14:12:58;14.90;87.10
42097;DHT22;27754;45.414;11.084;2023-05-10T14:15:25;14.90;87.00
42097;DHT22;27754;45.414;11.084;2023-05-10T14:17:52;14.90;86.70
42097;DHT22;27754;45.414;11.084;2023-05-10T14:20:19;14.90;86.50
42097;DHT22;27754;45.414;11.084;2023-05-10T14:22:46;15.00;86.10
42097;DHT22;27754;45.414;11.084;2023-05-10T14:25:14;14.90;86.10
42097;DHT22;27754;45.414;11.084;2023-05-10T14:27:41;14.90;85.60
42097;DHT22;27754;45.414;11.084;2023-05-10T14:30:08;15.00;86.00
42097;DHT22;27754;45.414;11.084;2023-05-10T14:32:36;14.90;85.20
42097;DHT22;27754;45.414;11.084;2023-05-10T14:35:03;14.90;85.90
42097;DHT22;27754;45.414;11.084;2023-05-10T14:37:30;14.90;86.70
42097;DHT22;27754;45.414;11.084;2023-05-10T14:39:57;14.80;86.20
42097;DHT22;27754;45.414;11.084;2023-05-10T14:42:24;14.70;85.30
42097;DHT22;27754;45.414;11.084;2023-05-10T14:44:51;14.50;87.10
42097;DHT22;27754;45.414;11.084;2023-05-10T14:47:18;14.60;86.50
42097;DHT22;27754;45.414;11.084;2023-05-10T14:49:45;14.50;86.40
42097;DHT22;27754;45.414;11.084;2023-05-10T14:52:12;14.50;85.90
42097;DHT22;27754;45.414;11.084;2023-05-10T14:54:40;14.50;86.20
42097;DHT22;27754;45.414;11.084;2023-05-10T14:57:07;14.40;86.20
42097;DHT22;27754;45.414;11.084;2023-05-10T14:59:34;14.40;86.10
42097;DHT22;27754;45.414;11.084;2023-05-10T15:02:02;14.30;85.70
42097;DHT22;27754;45.414;11.084;2023-05-10T15:04:30;14.30;86.20
42097;DHT22;27754;45.414;11.084;2023-05-10T15:06:57;14.20;85.90
42097;DHT22;27754;45.414;11.084;2023-05-10T15:09:26;14.10;86.20
42097;DHT22;27754;45.414;11.084;2023-05-10T15:11:54;14.10;85.40
42097;DHT22;27754;45.414;11.084;2023-05-10T15:14:22;14.20;86.80
42097;DHT22;27754;45.414;11.084;2023-05-10T15:16:49;14.20;87.00
42097;DHT22;27754;45.414;11.084;2023-05-10T15:19:16;14.20;86.40
42097;DHT22;27754;45.414;11.084;2023-05-10T15:25:22;14.10;86.60
42097;DHT22;27754;45.414;11.084;2023-05-10T15:27:50;14.20;87.90
42097;DHT22;27754;45.414;11.084;2023-05-10T15:30:17;14.10;86.80
42097;DHT22;27754;45.414;11.084;2023-05-10T15:32:44;14.10;87.40
42097;DHT22;27754;45.414;11.084;2023-05-10T15:35:11;14.00;87.10
42097;DHT22;27754;45.414;11.084;2023-05-10T15:37:38;14.10;87.60
42097;DHT22;27754;45.414;11.084;2023-05-10T15:40:05;14.10;88.60
42097;DHT22;27754;45.414;11.084;2023-05-10T15:42:33;14.20;89.00
42097;DHT22;27754;45.414;11.084;2023-05-10T15:44:59;14.10;88.70
42097;DHT22;27754;45.414;11.084;2023-05-10T15:47:29;14.30;88.70